sensor_id;sensor_type;location;lat;lon;timestamp;P1;durP1;ratioP1;P2;durP2;ratioP2
69629;SDS011;56857;52.212;5.496;2023-05-07T00:01:09;7.72;;;4.65;;
69629;SDS011;56857;52.212;5.496;2023-05-07T00:03:35;7.38;;;4.93;;
69629;SDS011;56857;52.212;5.496;2023-05-07T00:06:00;9.00;;;4.93;;
69629;SDS011;56857;52.212;5.496;2023-05-07T00:08:25;9.32;;;5.50;;
69629;SDS011;56857;52.212;5.496;2023-05-07T00:10:51;7.18;;;4.38;;
69629;SDS011;56857;52.212;5.496;2023-05-07T00:13:16;7.35;;;4.78;;
69629;SDS011;56857;52.212;5.496;2023-05-07T00:15:41;9.20;;;5.10;;
69629;SDS011;56857;52.212;5.496;2023-05-07T00:18:06;8.50;;;5.72;;
69629;SDS011;56857;52.212;5.496;2023-05-07T00:20:32;9.30;;;4.95;;
69629;SDS011;56857;52.212;5.496;2023-05-07T00:22:57;11.23;;;5.20;;
69629;SDS011;56857;52.212;5.496;2023-05-07T00:25:22;9.10;;;4.80;;
69629;SDS011;56857;52.212;5.496;2023-05-07T00:27:48;11.45;;;5.78;;
69629;SDS011;56857;52.212;5.496;2023-05-07T00:30:13;9.65;;;6.88;;
69629;SDS011;56857;52.212;5.496;2023-05-07T00:32:39;8.00;;;4.90;;
69629;SDS011;56857;52.212;5.496;2023-05-07T00:35:04;7.57;;;5.03;;
69629;SDS011;56857;52.212;5.496;2023-05-07T00:37:30;12.27;;;5.35;;
69629;SDS011;56857;52.212;5.496;2023-05-07T00:39:56;11.15;;;5.63;;
69629;SDS011;56857;52.212;5.496;2023-05-07T00:42:21;8.80;;;4.70;;
69629;SDS011;56857;52.212;5.496;2023-05-07T00:44:47;15.63;;;4.80;;
69629;SDS011;56857;52.212;5.496;2023-05-07T00:47:13;7.50;;;5.00;;
69629;SDS011;56857;52.212;5.496;2023-05-07T00:49:41;8.30;;;5.38;;
69629;SDS011;56857;52.212;5.496;2023-05-07T00:52:07;7.93;;;5.00;;
69629;SDS011;56857;52.212;5.496;2023-05-07T00:54:36;10.52;;;5.20;;
69629;SDS011;56857;52.212;5.496;2023-05-07T00:57:02;8.32;;;4.70;;
69629;SDS011;56857;52.212;5.496;2023-05-07T00:59:28;8.45;;;5.45;;
69629;SDS011;56857;52.212;5.496;2023-05-07T01:01:54;9.05;;;5.63;;
69629;SDS011;56857;52.212;5.496;2023-05-07T01:04:19;8.35;;;5.32;;
69629;SDS011;56857;52.212;5.496;2023-05-07T01:06:44;9.15;;;5.82;;
69629;SDS011;56857;52.212;5.496;2023-05-07T01:09:11;8.68;;;5.28;;
69629;SDS011;56857;52.212;5.496;2023-05-07T01:11:37;8.15;;;4.97;;
69629;SDS011;56857;52.212;5.496;2023-05-07T01:14:04;8.13;;;5.22;;
69629;SDS011;56857;52.212;5.496;2023-05-07T01:16:29;8.38;;;5.15;;
69629;SDS011;56857;52.212;5.496;2023-05-07T01:18:55;8.80;;;5.10;;
69629;SDS011;56857;52.212;5.496;2023-05-07T01:21:22;10.90;;;5.28;;
69629;SDS011;56857;52.212;5.496;2023-05-07T01:23:50;9.30;;;5.82;;
69629;SDS011;56857;52.212;5.496;2023-05-07T01:26:16;7.82;;;5.80;;
69629;SDS011;56857;52.212;5.496;2023-05-07T01:28:41;7.78;;;5.05;;
69629;SDS011;56857;52.212;5.496;2023-05-07T01:31:06;8.77;;;5.33;;
69629;SDS011;56857;52.212;5.496;2023-05-07T01:33:33;9.55;;;5.80;;
69629;SDS011;56857;52.212;5.496;2023-05-07T01:36:01;9.20;;;5.55;;
69629;SDS011;56857;52.212;5.496;2023-05-07T01:38:28;8.90;;;5.18;;
69629;SDS011;56857;52.212;5.496;2023-05-07T01:40:54;9.70;;;5.90;;
69629;SDS011;56857;52.212;5.496;2023-05-07T01:43:20;8.85;;;5.78;;
69629;SDS011;56857;52.212;5.496;2023-05-07T01:45:46;10.20;;;5.32;;
69629;SDS011;56857;52.212;5.496;2023-05-07T01:48:12;9.52;;;5.65;;
69629;SDS011;56857;52.212;5.496;2023-05-07T01:50:39;8.55;;;5.70;;
69629;SDS011;56857;52.212;5.496;2023-05-07T01:53:04;9.43;;;6.22;;
69629;SDS011;56857;52.212;5.496;2023-05-07T01:55:30;14.02;;;7.10;;
69629;SDS011;56857;52.212;5.496;2023-05-07T01:57:58;8.38;;;5.40;;
69629;SDS011;56857;52.212;5.496;2023-05-07T02:00:23;9.23;;;5.85;;
69629;SDS011;56857;52.212;5.496;2023-05-07T02:02:49;10.68;;;5.53;;
69629;SDS011;56857;52.212;5.496;2023-05-07T02:05:14;11.47;;;7.00;;
69629;SDS011;56857;52.212;5.496;2023-05-07T02:07:40;8.88;;;5.47;;
69629;SDS011;56857;52.212;5.496;2023-05-07T02:10:05;8.98;;;5.57;;
69629;SDS011;56857;52.212;5.496;2023-05-07T02:12:31;9.88;;;5.85;;
69629;SDS011;56857;52.212;5.496;2023-05-07T02:14:57;9.60;;;5.90;;
69629;SDS011;56857;52.212;5.496;2023-05-07T02:17:22;9.57;;;5.35;;
69629;SDS011;56857;52.212;5.496;2023-05-07T02:19:47;9.98;;;5.80;;
69629;SDS011;56857;52.212;5.496;2023-05-07T02:22:12;11.57;;;6.15;;
69629;SDS011;56857;52.212;5.496;2023-05-07T02:24:38;10.32;;;5.75;;
69629;SDS011;56857;52.212;5.496;2023-05-07T02:27:03;9.07;;;6.53;;
69629;SDS011;56857;52.212;5.496;2023-05-07T02:29:29;10.18;;;6.13;;
69629;SDS011;56857;52.212;5.496;2023-05-07T02:31:54;8.57;;;5.82;;
69629;SDS011;56857;52.212;5.496;2023-05-07T02:34:20;10.13;;;7.25;;
69629;SDS011;56857;52.212;5.496;2023-05-07T02:36:45;11.43;;;6.63;;
69629;SDS011;56857;52.212;5.496;2023-05-07T02:39:11;10.27;;;6.23;;
69629;SDS011;56857;52.212;5.496;2023-05-07T02:41:37;8.35;;;5.28;;
69629;SDS011;56857;52.212;5.496;2023-05-07T02:44:03;8.50;;;5.57;;
69629;SDS011;56857;52.212;5.496;2023-05-07T02:46:28;11.82;;;6.53;;
69629;SDS011;56857;52.212;5.496;2023-05-07T02:48:54;9.43;;;6.13;;
69629;SDS011;56857;52.212;5.496;2023-05-07T02:51:19;13.27;;;6.10;;
69629;SDS011;56857;52.212;5.496;2023-05-07T02:53:46;11.00;;;6.13;;
69629;SDS011;56857;52.212;5.496;2023-05-07T02:56:11;9.52;;;5.80;;
69629;SDS011;56857;52.212;5.496;2023-05-07T02:58:37;9.45;;;5.80;;
69629;SDS011;56857;52.212;5.496;2023-05-07T03:01:03;9.65;;;5.85;;
69629;SDS011;56857;52.212;5.496;2023-05-07T03:03:28;8.68;;;5.85;;
69629;SDS011;56857;52.212;5.496;2023-05-07T03:05:53;9.38;;;6.20;;
69629;SDS011;56857;52.212;5.496;2023-05-07T03:08:18;10.07;;;6.30;;
69629;SDS011;56857;52.212;5.496;2023-05-07T03:10:44;10.32;;;6.47;;
69629;SDS011;56857;52.212;5.496;2023-05-07T03:13:09;9.10;;;5.57;;
69629;SDS011;56857;52.212;5.496;2023-05-07T03:15:35;22.00;;;7.07;;
69629;SDS011;56857;52.212;5.496;2023-05-07T03:18:00;9.45;;;6.18;;
69629;SDS011;56857;52.212;5.496;2023-05-07T03:20:25;9.80;;;6.13;;
69629;SDS011;56857;52.212;5.496;2023-05-07T03:22:51;10.10;;;6.78;;
69629;SDS011;56857;52.212;5.496;2023-05-07T03:25:16;13.18;;;8.93;;
69629;SDS011;56857;52.212;5.496;2023-05-07T03:27:42;9.90;;;7.72;;
69629;SDS011;56857;52.212;5.496;2023-05-07T03:30:07;13.88;;;7.72;;
69629;SDS011;56857;52.212;5.496;2023-05-07T03:32:33;10.68;;;6.78;;
69629;SDS011;56857;52.212;5.496;2023-05-07T03:34:58;8.77;;;6.40;;
69629;SDS011;56857;52.212;5.496;2023-05-07T03:37:23;11.18;;;7.85;;
69629;SDS011;56857;52.212;5.496;2023-05-07T03:39:49;11.77;;;8.20;;
69629;SDS011;56857;52.212;5.496;2023-05-07T03:42:14;10.80;;;7.15;;
69629;SDS011;56857;52.212;5.496;2023-05-07T03:44:40;9.75;;;7.25;;
69629;SDS011;56857;52.212;5.496;2023-05-07T03:47:05;11.75;;;6.70;;
69629;SDS011;56857;52.212;5.496;2023-05-07T03:49:30;11.95;;;7.47;;
69629;SDS011;56857;52.212;5.496;2023-05-07T03:51:56;11.85;;;8.15;;
69629;SDS011;56857;52.212;5.496;2023-05-07T03:54:21;11.35;;;8.35;;
69629;SDS011;56857;52.212;5.496;2023-05-07T03:56:46;14.10;;;8.63;;
69629;SDS011;56857;52.212;5.496;2023-05-07T03:59:12;14.10;;;9.20;;
69629;SDS011;56857;52.212;5.496;2023-05-07T04:01:38;14.00;;;9.52;;
69629;SDS011;56857;52.212;5.496;2023-05-07T04:04:03;12.40;;;8.35;;
69629;SDS011;56857;52.212;5.496;2023-05-07T04:06:29;11.95;;;7.90;;
69629;SDS011;56857;52.212;5.496;2023-05-07T04:08:54;11.05;;;6.88;;
69629;SDS011;56857;52.212;5.496;2023-05-07T04:11:20;14.48;;;9.38;;
69629;SDS011;56857;52.212;5.496;2023-05-07T04:13:45;11.68;;;7.50;;
69629;SDS011;56857;52.212;5.496;2023-05-07T04:16:10;16.63;;;10.10;;
69629;SDS011;56857;52.212;5.496;2023-05-07T04:18:36;13.93;;;8.38;;
69629;SDS011;56857;52.212;5.496;2023-05-07T04:21:01;13.98;;;8.88;;
69629;SDS011;56857;52.212;5.496;2023-05-07T04:23:27;11.45;;;7.90;;
69629;SDS011;56857;52.212;5.496;2023-05-07T04:25:52;18.00;;;10.13;;
69629;SDS011;56857;52.212;5.496;2023-05-07T04:28:17;15.63;;;8.77;;
69629;SDS011;56857;52.212;5.496;2023-05-07T04:30:43;19.35;;;9.98;;
69629;SDS011;56857;52.212;5.496;2023-05-07T04:33:08;13.90;;;8.50;;
69629;SDS011;56857;52.212;5.496;2023-05-07T04:35:34;14.27;;;9.15;;
69629;SDS011;56857;52.212;5.496;2023-05-07T04:38:00;12.70;;;8.98;;
69629;SDS011;56857;52.212;5.496;2023-05-07T04:40:25;18.75;;;11.60;;
69629;SDS011;56857;52.212;5.496;2023-05-07T04:42:51;15.47;;;9.77;;
69629;SDS011;56857;52.212;5.496;2023-05-07T04:45:16;15.57;;;11.93;;
69629;SDS011;56857;52.212;5.496;2023-05-07T04:47:41;16.52;;;11.30;;
69629;SDS011;56857;52.212;5.496;2023-05-07T04:50:07;18.80;;;13.83;;
69629;SDS011;56857;52.212;5.496;2023-05-07T04:52:32;17.90;;;13.02;;
69629;SDS011;56857;52.212;5.496;2023-05-07T04:55:01;18.17;;;12.85;;
69629;SDS011;56857;52.212;5.496;2023-05-07T04:57:26;17.88;;;13.15;;
69629;SDS011;56857;52.212;5.496;2023-05-07T04:59:52;17.92;;;13.32;;
69629;SDS011;56857;52.212;5.496;2023-05-07T05:02:18;17.08;;;12.43;;
69629;SDS011;56857;52.212;5.496;2023-05-07T05:04:44;19.77;;;13.18;;
69629;SDS011;56857;52.212;5.496;2023-05-07T05:07:09;15.60;;;10.93;;
69629;SDS011;56857;52.212;5.496;2023-05-07T05:09:34;18.25;;;12.63;;
69629;SDS011;56857;52.212;5.496;2023-05-07T05:12:00;21.48;;;13.68;;
69629;SDS011;56857;52.212;5.496;2023-05-07T05:14:25;23.13;;;15.95;;
69629;SDS011;56857;52.212;5.496;2023-05-07T05:16:50;16.58;;;12.18;;
69629;SDS011;56857;52.212;5.496;2023-05-07T05:19:16;15.57;;;11.02;;
69629;SDS011;56857;52.212;5.496;2023-05-07T05:21:41;15.17;;;11.47;;
69629;SDS011;56857;52.212;5.496;2023-05-07T05:24:06;15.82;;;11.73;;
69629;SDS011;56857;52.212;5.496;2023-05-07T05:26:32;25.23;;;18.13;;
69629;SDS011;56857;52.212;5.496;2023-05-07T05:28:57;17.75;;;12.88;;
69629;SDS011;56857;52.212;5.496;2023-05-07T05:31:22;16.42;;;11.55;;
69629;SDS011;56857;52.212;5.496;2023-05-07T05:33:48;22.65;;;14.15;;
69629;SDS011;56857;52.212;5.496;2023-05-07T05:36:13;16.73;;;11.93;;
69629;SDS011;56857;52.212;5.496;2023-05-07T05:38:39;20.73;;;14.55;;
69629;SDS011;56857;52.212;5.496;2023-05-07T05:41:04;17.02;;;12.30;;
69629;SDS011;56857;52.212;5.496;2023-05-07T05:43:30;24.02;;;16.92;;
69629;SDS011;56857;52.212;5.496;2023-05-07T05:45:56;19.88;;;14.38;;
69629;SDS011;56857;52.212;5.496;2023-05-07T05:48:21;20.45;;;12.93;;
69629;SDS011;56857;52.212;5.496;2023-05-07T05:50:47;19.85;;;14.70;;
69629;SDS011;56857;52.212;5.496;2023-05-07T05:53:12;18.95;;;13.52;;
69629;SDS011;56857;52.212;5.496;2023-05-07T05:55:38;18.17;;;13.82;;
69629;SDS011;56857;52.212;5.496;2023-05-07T05:58:03;22.67;;;16.35;;
69629;SDS011;56857;52.212;5.496;2023-05-07T06:00:28;22.25;;;16.35;;
69629;SDS011;56857;52.212;5.496;2023-05-07T06:02:54;20.08;;;14.95;;
69629;SDS011;56857;52.212;5.496;2023-05-07T06:05:19;20.50;;;14.60;;
69629;SDS011;56857;52.212;5.496;2023-05-07T06:07:44;21.70;;;15.30;;
69629;SDS011;56857;52.212;5.496;2023-05-07T06:10:10;16.37;;;11.73;;
69629;SDS011;56857;52.212;5.496;2023-05-07T06:12:35;22.08;;;16.52;;
69629;SDS011;56857;52.212;5.496;2023-05-07T06:15:00;17.92;;;13.45;;
69629;SDS011;56857;52.212;5.496;2023-05-07T06:17:26;19.80;;;14.98;;
69629;SDS011;56857;52.212;5.496;2023-05-07T06:19:51;16.67;;;12.97;;
69629;SDS011;56857;52.212;5.496;2023-05-07T06:22:17;17.60;;;13.18;;
69629;SDS011;56857;52.212;5.496;2023-05-07T06:24:42;17.30;;;12.83;;
69629;SDS011;56857;52.212;5.496;2023-05-07T06:27:08;16.52;;;12.27;;
69629;SDS011;56857;52.212;5.496;2023-05-07T06:29:33;21.05;;;14.52;;
69629;SDS011;56857;52.212;5.496;2023-05-07T06:32:08;16.45;;;12.57;;
69629;SDS011;56857;52.212;5.496;2023-05-07T06:34:35;20.52;;;14.13;;
69629;SDS011;56857;52.212;5.496;2023-05-07T06:37:00;20.63;;;15.57;;
69629;SDS011;56857;52.212;5.496;2023-05-07T06:39:26;21.48;;;14.95;;
69629;SDS011;56857;52.212;5.496;2023-05-07T06:41:51;18.35;;;13.05;;
69629;SDS011;56857;52.212;5.496;2023-05-07T06:44:16;16.45;;;12.30;;
69629;SDS011;56857;52.212;5.496;2023-05-07T06:46:42;18.90;;;13.20;;
69629;SDS011;56857;52.212;5.496;2023-05-07T06:49:07;18.02;;;13.35;;
69629;SDS011;56857;52.212;5.496;2023-05-07T06:51:33;18.08;;;13.25;;
69629;SDS011;56857;52.212;5.496;2023-05-07T06:53:58;17.42;;;12.45;;
69629;SDS011;56857;52.212;5.496;2023-05-07T06:56:23;21.88;;;15.32;;
69629;SDS011;56857;52.212;5.496;2023-05-07T06:58:49;17.88;;;14.07;;
69629;SDS011;56857;52.212;5.496;2023-05-07T07:01:14;17.27;;;13.27;;
69629;SDS011;56857;52.212;5.496;2023-05-07T07:03:39;18.13;;;13.50;;
69629;SDS011;56857;52.212;5.496;2023-05-07T07:06:05;18.83;;;13.75;;
69629;SDS011;56857;52.212;5.496;2023-05-07T07:08:30;16.58;;;12.35;;
69629;SDS011;56857;52.212;5.496;2023-05-07T07:10:55;19.17;;;12.98;;
69629;SDS011;56857;52.212;5.496;2023-05-07T07:13:21;19.10;;;13.85;;
69629;SDS011;56857;52.212;5.496;2023-05-07T07:15:46;20.98;;;15.75;;
69629;SDS011;56857;52.212;5.496;2023-05-07T07:18:11;22.02;;;15.75;;
69629;SDS011;56857;52.212;5.496;2023-05-07T07:20:36;19.55;;;14.38;;
69629;SDS011;56857;52.212;5.496;2023-05-07T07:23:02;20.33;;;15.30;;
69629;SDS011;56857;52.212;5.496;2023-05-07T07:25:28;24.65;;;15.82;;
69629;SDS011;56857;52.212;5.496;2023-05-07T07:27:53;17.33;;;12.73;;
69629;SDS011;56857;52.212;5.496;2023-05-07T07:30:18;21.60;;;16.45;;
69629;SDS011;56857;52.212;5.496;2023-05-07T07:32:44;19.80;;;14.10;;
69629;SDS011;56857;52.212;5.496;2023-05-07T07:35:09;20.70;;;15.55;;
69629;SDS011;56857;52.212;5.496;2023-05-07T07:37:34;21.70;;;16.50;;
69629;SDS011;56857;52.212;5.496;2023-05-07T07:40:00;20.17;;;14.20;;
69629;SDS011;56857;52.212;5.496;2023-05-07T07:42:26;21.33;;;15.70;;
69629;SDS011;56857;52.212;5.496;2023-05-07T07:44:51;17.67;;;13.35;;
69629;SDS011;56857;52.212;5.496;2023-05-07T07:47:17;17.17;;;13.18;;
69629;SDS011;56857;52.212;5.496;2023-05-07T07:49:42;19.60;;;14.38;;
69629;SDS011;56857;52.212;5.496;2023-05-07T07:52:08;24.45;;;17.40;;
69629;SDS011;56857;52.212;5.496;2023-05-07T07:54:34;19.55;;;14.48;;
69629;SDS011;56857;52.212;5.496;2023-05-07T07:56:59;19.27;;;14.10;;
69629;SDS011;56857;52.212;5.496;2023-05-07T07:59:25;19.83;;;15.10;;
69629;SDS011;56857;52.212;5.496;2023-05-07T08:01:50;21.58;;;16.40;;
69629;SDS011;56857;52.212;5.496;2023-05-07T08:04:15;24.98;;;17.33;;
69629;SDS011;56857;52.212;5.496;2023-05-07T08:06:41;23.58;;;16.85;;
69629;SDS011;56857;52.212;5.496;2023-05-07T08:09:07;18.48;;;14.38;;
69629;SDS011;56857;52.212;5.496;2023-05-07T08:11:32;20.30;;;15.05;;
69629;SDS011;56857;52.212;5.496;2023-05-07T08:13:58;22.23;;;17.17;;
69629;SDS011;56857;52.212;5.496;2023-05-07T08:16:23;22.92;;;17.40;;
69629;SDS011;56857;52.212;5.496;2023-05-07T08:18:48;20.77;;;15.40;;
69629;SDS011;56857;52.212;5.496;2023-05-07T08:21:14;19.30;;;14.20;;
69629;SDS011;56857;52.212;5.496;2023-05-07T08:23:39;21.17;;;16.55;;
69629;SDS011;56857;52.212;5.496;2023-05-07T08:26:04;21.02;;;15.35;;
69629;SDS011;56857;52.212;5.496;2023-05-07T08:28:30;18.98;;;14.48;;
69629;SDS011;56857;52.212;5.496;2023-05-07T08:30:56;19.30;;;13.15;;
69629;SDS011;56857;52.212;5.496;2023-05-07T08:33:22;20.17;;;13.75;;
69629;SDS011;56857;52.212;5.496;2023-05-07T08:35:47;18.10;;;14.02;;
69629;SDS011;56857;52.212;5.496;2023-05-07T08:38:13;21.10;;;16.17;;
69629;SDS011;56857;52.212;5.496;2023-05-07T08:40:38;17.90;;;13.85;;
69629;SDS011;56857;52.212;5.496;2023-05-07T08:43:07;18.45;;;13.77;;
69629;SDS011;56857;52.212;5.496;2023-05-07T08:45:34;18.98;;;13.35;;
69629;SDS011;56857;52.212;5.496;2023-05-07T08:48:01;21.23;;;16.95;;
69629;SDS011;56857;52.212;5.496;2023-05-07T08:50:28;18.52;;;13.52;;
69629;SDS011;56857;52.212;5.496;2023-05-07T08:52:54;21.27;;;14.38;;
69629;SDS011;56857;52.212;5.496;2023-05-07T08:55:20;19.67;;;14.40;;
69629;SDS011;56857;52.212;5.496;2023-05-07T08:57:45;20.98;;;12.75;;
69629;SDS011;56857;52.212;5.496;2023-05-07T09:00:11;17.27;;;12.57;;
69629;SDS011;56857;52.212;5.496;2023-05-07T09:02:37;16.88;;;12.63;;
69629;SDS011;56857;52.212;5.496;2023-05-07T09:05:02;17.60;;;13.23;;
69629;SDS011;56857;52.212;5.496;2023-05-07T09:07:28;19.27;;;13.77;;
69629;SDS011;56857;52.212;5.496;2023-05-07T09:09:55;17.65;;;12.23;;
69629;SDS011;56857;52.212;5.496;2023-05-07T09:12:20;20.98;;;14.57;;
69629;SDS011;56857;52.212;5.496;2023-05-07T09:14:46;23.02;;;15.35;;
69629;SDS011;56857;52.212;5.496;2023-05-07T09:17:12;19.25;;;13.23;;
69629;SDS011;56857;52.212;5.496;2023-05-07T09:19:37;20.45;;;13.80;;
69629;SDS011;56857;52.212;5.496;2023-05-07T09:22:03;19.80;;;14.27;;
69629;SDS011;56857;52.212;5.496;2023-05-07T09:24:30;19.92;;;14.25;;
69629;SDS011;56857;52.212;5.496;2023-05-07T09:26:58;20.52;;;15.10;;
69629;SDS011;56857;52.212;5.496;2023-05-07T09:29:24;18.27;;;12.60;;
69629;SDS011;56857;52.212;5.496;2023-05-07T09:31:50;21.58;;;14.30;;
69629;SDS011;56857;52.212;5.496;2023-05-07T09:34:15;18.50;;;13.40;;
69629;SDS011;56857;52.212;5.496;2023-05-07T09:36:41;19.05;;;13.57;;
69629;SDS011;56857;52.212;5.496;2023-05-07T09:39:06;19.27;;;13.13;;
69629;SDS011;56857;52.212;5.496;2023-05-07T09:41:32;21.15;;;14.27;;
69629;SDS011;56857;52.212;5.496;2023-05-07T09:43:58;23.77;;;16.50;;
69629;SDS011;56857;52.212;5.496;2023-05-07T09:46:29;21.08;;;12.20;;
69629;SDS011;56857;52.212;5.496;2023-05-07T09:48:56;18.25;;;13.00;;
69629;SDS011;56857;52.212;5.496;2023-05-07T09:51:29;17.83;;;13.27;;
69629;SDS011;56857;52.212;5.496;2023-05-07T09:54:02;18.88;;;13.60;;
69629;SDS011;56857;52.212;5.496;2023-05-07T09:56:29;20.52;;;14.30;;
69629;SDS011;56857;52.212;5.496;2023-05-07T09:58:56;22.67;;;15.13;;
69629;SDS011;56857;52.212;5.496;2023-05-07T10:01:24;23.67;;;15.43;;
69629;SDS011;56857;52.212;5.496;2023-05-07T10:03:50;21.00;;;14.15;;
69629;SDS011;56857;52.212;5.496;2023-05-07T10:06:17;20.50;;;14.43;;
69629;SDS011;56857;52.212;5.496;2023-05-07T10:08:44;19.83;;;14.35;;
69629;SDS011;56857;52.212;5.496;2023-05-07T10:11:10;21.80;;;14.60;;
69629;SDS011;56857;52.212;5.496;2023-05-07T10:13:36;19.63;;;13.40;;
69629;SDS011;56857;52.212;5.496;2023-05-07T10:16:05;20.25;;;14.77;;
69629;SDS011;56857;52.212;5.496;2023-05-07T10:18:31;20.25;;;13.30;;
69629;SDS011;56857;52.212;5.496;2023-05-07T10:20:59;19.10;;;13.07;;
69629;SDS011;56857;52.212;5.496;2023-05-07T10:23:32;18.38;;;13.63;;
69629;SDS011;56857;52.212;5.496;2023-05-07T10:25:58;20.73;;;14.25;;
69629;SDS011;56857;52.212;5.496;2023-05-07T10:28:27;20.95;;;14.05;;
69629;SDS011;56857;52.212;5.496;2023-05-07T10:30:58;20.13;;;13.60;;
69629;SDS011;56857;52.212;5.496;2023-05-07T10:33:32;16.17;;;12.20;;
69629;SDS011;56857;52.212;5.496;2023-05-07T10:36:00;18.23;;;11.73;;
69629;SDS011;56857;52.212;5.496;2023-05-07T10:38:27;19.55;;;13.13;;
69629;SDS011;56857;52.212;5.496;2023-05-07T10:40:52;19.20;;;11.00;;
69629;SDS011;56857;52.212;5.496;2023-05-07T10:43:18;17.10;;;12.38;;
69629;SDS011;56857;52.212;5.496;2023-05-07T10:45:44;18.73;;;12.95;;
69629;SDS011;56857;52.212;5.496;2023-05-07T10:49:06;17.77;;;10.93;;
69629;SDS011;56857;52.212;5.496;2023-05-07T10:51:27;16.13;;;10.73;;
69629;SDS011;56857;52.212;5.496;2023-05-07T10:56:37;15.18;;;9.95;;
69629;SDS011;56857;52.212;5.496;2023-05-07T10:59:48;13.63;;;9.20;;
69629;SDS011;56857;52.212;5.496;2023-05-07T11:01:59;13.48;;;9.23;;
69629;SDS011;56857;52.212;5.496;2023-05-07T11:04:25;15.15;;;9.77;;
69629;SDS011;56857;52.212;5.496;2023-05-07T11:17:29;13.35;;;8.25;;
69629;SDS011;56857;52.212;5.496;2023-05-07T11:19:55;12.73;;;8.35;;
69629;SDS011;56857;52.212;5.496;2023-05-07T11:24:55;12.45;;;8.80;;
69629;SDS011;56857;52.212;5.496;2023-05-07T11:27:24;14.35;;;9.77;;
69629;SDS011;56857;52.212;5.496;2023-05-07T11:29:50;16.83;;;9.95;;
69629;SDS011;56857;52.212;5.496;2023-05-07T11:32:15;17.42;;;11.40;;
69629;SDS011;56857;52.212;5.496;2023-05-07T11:34:47;14.15;;;9.27;;
69629;SDS011;56857;52.212;5.496;2023-05-07T11:37:17;15.15;;;10.07;;
69629;SDS011;56857;52.212;5.496;2023-05-07T11:39:43;15.32;;;9.75;;
69629;SDS011;56857;52.212;5.496;2023-05-07T11:42:24;14.88;;;9.95;;
69629;SDS011;56857;52.212;5.496;2023-05-07T11:44:51;15.05;;;10.77;;
69629;SDS011;56857;52.212;5.496;2023-05-07T11:47:17;16.77;;;10.25;;
69629;SDS011;56857;52.212;5.496;2023-05-07T11:49:43;15.00;;;9.88;;
69629;SDS011;56857;52.212;5.496;2023-05-07T11:52:11;15.02;;;10.15;;
69629;SDS011;56857;52.212;5.496;2023-05-07T11:54:38;17.00;;;10.68;;
69629;SDS011;56857;52.212;5.496;2023-05-07T11:57:03;14.70;;;10.10;;
69629;SDS011;56857;52.212;5.496;2023-05-07T11:59:28;14.77;;;10.18;;
69629;SDS011;56857;52.212;5.496;2023-05-07T12:01:57;14.27;;;10.30;;
69629;SDS011;56857;52.212;5.496;2023-05-07T12:04:22;15.55;;;9.80;;
69629;SDS011;56857;52.212;5.496;2023-05-07T12:06:48;15.68;;;9.63;;
69629;SDS011;56857;52.212;5.496;2023-05-07T12:09:13;15.02;;;10.05;;
69629;SDS011;56857;52.212;5.496;2023-05-07T12:11:38;15.00;;;10.48;;
69629;SDS011;56857;52.212;5.496;2023-05-07T12:14:03;15.52;;;9.65;;
69629;SDS011;56857;52.212;5.496;2023-05-07T12:16:29;13.70;;;9.53;;
69629;SDS011;56857;52.212;5.496;2023-05-07T12:18:55;16.30;;;9.88;;
69629;SDS011;56857;52.212;5.496;2023-05-07T12:21:21;13.63;;;9.75;;
69629;SDS011;56857;52.212;5.496;2023-05-07T12:23:47;13.60;;;9.43;;
69629;SDS011;56857;52.212;5.496;2023-05-07T12:26:12;12.48;;;8.23;;
69629;SDS011;56857;52.212;5.496;2023-05-07T12:28:38;12.40;;;7.90;;
69629;SDS011;56857;52.212;5.496;2023-05-07T12:31:04;14.63;;;7.82;;
69629;SDS011;56857;52.212;5.496;2023-05-07T12:33:30;12.85;;;8.13;;
69629;SDS011;56857;52.212;5.496;2023-05-07T12:35:56;15.15;;;8.40;;
69629;SDS011;56857;52.212;5.496;2023-05-07T12:38:21;16.77;;;8.52;;
69629;SDS011;56857;52.212;5.496;2023-05-07T12:40:48;12.00;;;7.28;;
69629;SDS011;56857;52.212;5.496;2023-05-07T12:43:20;11.75;;;8.15;;
69629;SDS011;56857;52.212;5.496;2023-05-07T12:45:49;13.68;;;9.18;;
69629;SDS011;56857;52.212;5.496;2023-05-07T12:48:15;12.48;;;7.50;;
69629;SDS011;56857;52.212;5.496;2023-05-07T12:50:41;10.13;;;6.85;;
69629;SDS011;56857;52.212;5.496;2023-05-07T12:53:07;11.45;;;6.88;;
69629;SDS011;56857;52.212;5.496;2023-05-07T12:55:51;12.90;;;7.80;;
69629;SDS011;56857;52.212;5.496;2023-05-07T12:58:21;12.13;;;6.82;;
69629;SDS011;56857;52.212;5.496;2023-05-07T13:00:54;11.38;;;7.05;;
69629;SDS011;56857;52.212;5.496;2023-05-07T13:03:24;11.70;;;7.85;;
69629;SDS011;56857;52.212;5.496;2023-05-07T13:05:54;16.27;;;7.88;;
69629;SDS011;56857;52.212;5.496;2023-05-07T13:08:27;13.27;;;7.65;;
69629;SDS011;56857;52.212;5.496;2023-05-07T13:10:55;11.88;;;8.18;;
69629;SDS011;56857;52.212;5.496;2023-05-07T13:13:20;13.63;;;7.65;;
69629;SDS011;56857;52.212;5.496;2023-05-07T13:15:46;12.65;;;7.90;;
69629;SDS011;56857;52.212;5.496;2023-05-07T13:18:12;11.75;;;7.25;;
69629;SDS011;56857;52.212;5.496;2023-05-07T13:20:38;10.50;;;7.47;;
69629;SDS011;56857;52.212;5.496;2023-05-07T13:23:03;13.52;;;7.85;;
69629;SDS011;56857;52.212;5.496;2023-05-07T13:25:28;11.65;;;8.27;;
69629;SDS011;56857;52.212;5.496;2023-05-07T13:30:57;10.38;;;7.07;;
69629;SDS011;56857;52.212;5.496;2023-05-07T13:33:22;12.63;;;9.43;;
69629;SDS011;56857;52.212;5.496;2023-05-07T13:35:47;13.07;;;8.70;;
69629;SDS011;56857;52.212;5.496;2023-05-07T13:38:12;14.00;;;8.13;;
69629;SDS011;56857;52.212;5.496;2023-05-07T13:40:38;15.05;;;9.50;;
69629;SDS011;56857;52.212;5.496;2023-05-07T13:43:05;12.38;;;8.15;;
69629;SDS011;56857;52.212;5.496;2023-05-07T13:45:30;12.95;;;8.45;;
69629;SDS011;56857;52.212;5.496;2023-05-07T13:47:56;15.20;;;9.15;;
69629;SDS011;56857;52.212;5.496;2023-05-07T13:50:22;14.70;;;10.07;;
69629;SDS011;56857;52.212;5.496;2023-05-07T13:52:48;14.73;;;9.68;;
69629;SDS011;56857;52.212;5.496;2023-05-07T13:55:13;15.43;;;10.45;;
69629;SDS011;56857;52.212;5.496;2023-05-07T13:57:39;15.65;;;10.30;;
69629;SDS011;56857;52.212;5.496;2023-05-07T14:00:04;16.65;;;10.77;;
69629;SDS011;56857;52.212;5.496;2023-05-07T14:02:31;18.70;;;11.23;;
69629;SDS011;56857;52.212;5.496;2023-05-07T14:04:56;15.85;;;11.02;;
69629;SDS011;56857;52.212;5.496;2023-05-07T14:07:21;18.23;;;10.85;;
69629;SDS011;56857;52.212;5.496;2023-05-07T14:09:47;17.15;;;12.65;;
69629;SDS011;56857;52.212;5.496;2023-05-07T14:12:12;17.08;;;11.85;;
69629;SDS011;56857;52.212;5.496;2023-05-07T14:14:38;18.90;;;11.23;;
69629;SDS011;56857;52.212;5.496;2023-05-07T14:17:03;14.15;;;10.48;;
69629;SDS011;56857;52.212;5.496;2023-05-07T14:19:28;19.88;;;11.98;;
69629;SDS011;56857;52.212;5.496;2023-05-07T14:21:54;18.45;;;12.55;;
69629;SDS011;56857;52.212;5.496;2023-05-07T14:24:19;19.08;;;12.43;;
69629;SDS011;56857;52.212;5.496;2023-05-07T14:26:44;15.13;;;10.35;;
69629;SDS011;56857;52.212;5.496;2023-05-07T14:29:10;16.77;;;11.70;;
69629;SDS011;56857;52.212;5.496;2023-05-07T14:31:35;15.95;;;11.45;;
69629;SDS011;56857;52.212;5.496;2023-05-07T14:34:00;14.45;;;10.02;;
69629;SDS011;56857;52.212;5.496;2023-05-07T14:36:26;16.05;;;10.20;;
69629;SDS011;56857;52.212;5.496;2023-05-07T14:38:52;15.60;;;9.68;;
69629;SDS011;56857;52.212;5.496;2023-05-07T14:41:18;16.88;;;10.75;;
69629;SDS011;56857;52.212;5.496;2023-05-07T14:43:43;12.30;;;8.85;;